createdAt,value
2019-04-04T04:00:52.873Z,7.34
2019-04-04T04:01:52.732Z,7.33
2019-04-04T04:03:45.402Z,7.27
2019-04-04T04:04:45.315Z,7.33
2019-04-04T04:06:41.322Z,7.34
2019-04-04T04:07:37.844Z,7.29
2019-04-04T04:09:30.515Z,7.31
2019-04-04T04:10:33.357Z,7.29
2019-04-04T04:12:23.097Z,7.36
2019-04-04T04:13:22.953Z,7.30
2019-04-04T04:15:15.617Z,7.36
2019-04-04T04:16:15.516Z,7.36
2019-04-04T04:18:08.187Z,7.33
2019-04-04T04:19:08.058Z,7.26
2019-04-04T04:21:00.714Z,7.21
2019-04-04T04:22:00.607Z,7.18
2019-04-04T04:23:56.463Z,7.12
2019-04-04T04:24:53.155Z,7.11
2019-04-04T04:26:45.828Z,6.98
2019-04-04T04:27:48.510Z,6.97
2019-04-04T04:29:38.399Z,7.00
2019-04-04T04:30:40.603Z,7.01
2019-04-04T04:32:30.922Z,6.98
2019-04-04T04:33:30.801Z,6.93
2019-04-04T04:35:23.492Z,6.94
2019-04-04T04:36:23.368Z,6.93
2019-04-04T04:38:16.024Z,7.00
2019-04-04T04:39:15.908Z,6.95
2019-04-04T04:41:08.591Z,6.97
2019-04-04T04:42:08.459Z,6.95
2019-04-04T04:44:02.773Z,7.03
2019-04-04T04:45:01.008Z,7.01
2019-04-04T04:46:53.690Z,6.94
2019-04-04T04:47:55.954Z,6.95
2019-04-04T04:49:46.226Z,6.95
2019-04-04T04:50:46.119Z,6.93
2019-04-04T04:52:38.812Z,6.76
2019-04-04T04:53:38.671Z,6.94
2019-04-04T04:55:31.344Z,6.93
2019-04-04T04:56:31.932Z,6.98
2019-04-04T04:58:23.909Z,6.97
2019-04-04T04:59:23.777Z,6.93
2019-04-04T05:01:18.345Z,6.93
2019-04-04T05:02:16.336Z,6.94
2019-04-04T05:04:09.021Z,6.94
2019-04-04T05:05:08.883Z,6.94
2019-04-04T05:07:01.579Z,6.91
2019-04-04T05:08:01.447Z,6.88
2019-04-04T05:09:54.136Z,6.95
2019-04-04T05:10:54.001Z,6.86
2019-04-04T05:12:46.671Z,6.95
2019-04-04T05:13:46.549Z,6.91
2019-04-04T05:15:39.237Z,6.76
2019-04-04T05:16:39.096Z,6.82
2019-04-04T05:18:31.761Z,6.85
2019-04-04T05:19:31.670Z,6.78
2019-04-04T05:21:26.284Z,6.78
2019-04-04T05:22:24.207Z,6.85
2019-04-04T05:24:18.124Z,6.80
2019-04-04T05:25:16.758Z,6.80
2019-04-04T05:27:09.450Z,6.90
2019-04-04T05:28:10.816Z,6.85
2019-04-04T05:30:02.055Z,6.97
2019-04-04T05:31:01.876Z,6.91
2019-04-04T05:32:56.417Z,6.91
2019-04-04T05:33:54.421Z,6.91
2019-04-04T05:35:47.093Z,6.94
2019-04-04T05:36:46.979Z,6.90
2019-04-04T05:38:42.655Z,7.01
2019-04-04T05:39:40.522Z,6.95
2019-04-04T05:41:33.188Z,6.88
2019-04-04T05:42:33.664Z,7.00
2019-04-04T05:44:25.776Z,6.97
2019-04-04T05:45:25.638Z,7.08
2019-04-04T05:47:18.323Z,7.05
2019-04-04T05:48:18.204Z,7.13
2019-04-04T05:50:11.457Z,7.21
2019-04-04T05:51:10.762Z,7.29
2019-04-04T05:53:04.287Z,7.30
2019-04-04T05:54:03.343Z,7.44
2019-04-04T05:55:56.012Z,7.48
2019-04-04T05:56:55.883Z,7.45
2019-04-04T05:58:48.536Z,7.51
2019-04-04T05:59:48.420Z,7.39
2019-04-04T06:01:41.107Z,7.41
2019-04-04T06:02:42.934Z,7.39
2019-04-04T06:04:33.646Z,7.30
2019-04-04T06:05:33.526Z,7.31
2019-04-04T06:07:26.212Z,7.18
2019-04-04T06:08:26.072Z,7.22
2019-04-04T06:10:19.149Z,7.18
2019-04-04T06:11:20.850Z,7.16
2019-04-04T06:13:11.299Z,7.23
2019-04-04T06:14:11.180Z,7.27
2019-04-04T06:16:04.225Z,7.33
2019-04-04T06:17:05.077Z,7.33
2019-04-04T06:18:56.417Z,7.33
2019-04-04T06:19:56.291Z,7.33
2019-04-04T06:21:49.902Z,7.40
2019-04-04T06:22:50.045Z,7.44
2019-04-04T06:24:41.532Z,7.49
2019-04-04T06:25:41.395Z,7.45
2019-04-04T06:27:34.068Z,7.58
2019-04-04T06:28:33.958Z,7.54
2019-04-04T06:30:26.644Z,7.47
2019-04-04T06:31:30.645Z,7.44
2019-04-04T06:33:19.189Z,7.47
2019-04-04T06:34:19.083Z,7.58
2019-04-04T06:36:11.741Z,7.58
2019-04-04T06:37:11.609Z,7.63
2019-04-04T06:39:04.265Z,7.59
2019-04-04T06:40:04.159Z,7.67
2019-04-04T06:41:56.850Z,7.75
2019-04-04T06:42:56.714Z,7.73
2019-04-04T06:44:49.366Z,7.82
2019-04-04T06:45:49.257Z,7.77
2019-04-04T06:47:41.947Z,7.77
2019-04-04T06:48:41.811Z,7.58
2019-04-04T06:50:34.480Z,7.64
2019-04-04T06:51:34.360Z,7.75
2019-04-04T06:53:27.064Z,7.80
2019-04-04T06:54:26.937Z,7.80
2019-04-04T06:56:19.644Z,7.89
2019-04-04T06:57:19.493Z,7.93
2019-04-04T06:59:12.502Z,7.98
2019-04-04T07:00:15.530Z,7.95
2019-04-04T07:02:05.303Z,7.93
2019-04-04T07:03:04.618Z,7.89
2019-04-04T07:04:57.294Z,7.98
2019-04-04T07:05:57.155Z,8.06
2019-04-04T07:07:49.820Z,8.03
2019-04-04T07:08:49.717Z,7.96
2019-04-04T07:10:42.410Z,8.04
2019-04-04T07:11:42.277Z,8.07
2019-04-04T07:13:42.430Z,8.10
2019-04-04T07:14:45.218Z,8.13
2019-04-04T07:16:27.507Z,8.24
2019-04-04T07:17:27.369Z,8.22
2019-04-04T07:19:20.036Z,8.36
2019-04-04T07:20:19.931Z,8.31
2019-04-04T07:22:12.631Z,8.43
2019-04-04T07:23:14.368Z,8.40
2019-04-04T07:25:06.564Z,8.46
2019-04-04T07:26:05.033Z,8.53
2019-04-04T07:27:57.738Z,8.52
2019-04-04T07:28:57.590Z,8.47
2019-04-04T07:30:50.265Z,8.62
2019-04-04T07:31:50.161Z,8.43
2019-04-04T07:33:43.334Z,8.49
2019-04-04T07:34:45.108Z,8.53
2019-04-04T07:36:35.374Z,8.52
2019-04-04T07:37:35.265Z,8.52
2019-04-04T07:39:27.958Z,8.64
2019-04-04T07:40:27.824Z,8.65
2019-04-04T07:42:20.494Z,8.62
2019-04-04T07:43:20.379Z,8.44
2019-04-04T07:45:14.472Z,8.29
2019-04-04T07:46:16.760Z,8.35
2019-04-04T07:48:05.608Z,8.40
2019-04-04T07:49:05.507Z,8.42
2019-04-04T07:50:58.492Z,8.46
2019-04-04T07:51:58.059Z,8.46
2019-04-04T07:53:50.730Z,8.50
2019-04-04T07:54:50.622Z,8.64
2019-04-04T07:56:46.875Z,8.60
2019-04-04T07:57:43.172Z,8.67
2019-04-04T07:59:35.858Z,8.97
2019-04-04T08:00:35.729Z,8.95
2019-04-04T08:02:28.418Z,9.04
2019-04-04T08:03:28.284Z,8.95
2019-04-04T08:05:20.956Z,8.92
2019-04-04T08:06:20.843Z,8.95
2019-04-04T08:08:13.527Z,8.94
2019-04-04T08:09:13.399Z,8.95
2019-04-04T08:11:06.089Z,8.87
2019-04-04T08:12:05.962Z,8.83
2019-04-04T08:13:58.662Z,8.79
2019-04-04T08:14:58.538Z,8.83
2019-04-04T08:16:51.201Z,8.89
2019-04-04T08:17:51.086Z,8.86
2019-04-04T08:19:43.766Z,8.89
2019-04-04T08:20:43.636Z,8.80
2019-04-04T08:22:39.463Z,8.67
2019-04-04T08:23:36.200Z,8.58
2019-04-04T08:25:28.890Z,8.39
2019-04-04T08:26:28.759Z,8.40
2019-04-04T08:28:21.582Z,8.34
2019-04-04T08:29:21.319Z,8.36
2019-04-04T08:31:13.996Z,8.40
2019-04-04T08:32:13.873Z,8.21
2019-04-04T08:34:06.535Z,8.28
2019-04-04T08:35:06.428Z,8.29
2019-04-04T08:36:59.112Z,8.34
2019-04-04T08:37:58.981Z,8.32
2019-04-04T08:39:51.656Z,8.29
2019-04-04T08:40:51.543Z,8.34
2019-04-04T08:42:44.244Z,8.32
2019-04-04T08:43:44.121Z,8.46
2019-04-04T08:45:36.791Z,8.44
2019-04-04T08:46:36.691Z,8.44
2019-04-04T08:48:29.366Z,8.46
2019-04-04T08:49:29.227Z,8.43
2019-04-04T08:51:21.899Z,8.64
2019-04-04T08:52:21.784Z,8.67
2019-04-04T08:54:14.477Z,8.62
2019-04-04T08:55:14.342Z,8.58
2019-04-04T08:57:07.019Z,8.65
2019-04-04T08:58:06.902Z,8.69
2019-04-04T08:59:59.589Z,8.62
2019-04-04T09:00:59.449Z,8.60
2019-04-04T09:02:52.129Z,8.68
2019-04-04T09:03:52.075Z,8.49
2019-04-04T09:05:44.718Z,8.57
2019-04-04T09:06:44.576Z,8.54
2019-04-04T09:08:37.245Z,8.67
2019-04-04T09:09:37.203Z,8.71
2019-04-04T09:11:29.826Z,8.68
2019-04-04T09:12:29.693Z,8.77
2019-04-04T09:14:22.366Z,8.92
2019-04-04T09:15:22.253Z,8.94
2019-04-04T09:17:14.940Z,9.05
2019-04-04T09:18:14.811Z,9.09
2019-04-04T09:20:09.511Z,9.20
2019-04-04T09:21:07.361Z,9.09
2019-04-04T09:23:00.054Z,9.08
2019-04-04T09:24:00.847Z,9.00
2019-04-04T09:26:04.666Z,9.11
2019-04-04T09:26:52.474Z,9.12
2019-04-04T09:28:45.172Z,9.29
2019-04-04T09:29:45.032Z,9.20
2019-04-04T09:31:37.702Z,9.41
2019-04-04T09:32:37.594Z,9.41
2019-04-04T09:34:30.270Z,9.17
2019-04-04T09:35:30.147Z,9.26
2019-04-04T09:37:22.820Z,9.34
2019-04-04T09:38:22.699Z,9.35
2019-04-04T09:40:15.385Z,9.48
2019-04-04T09:41:15.261Z,9.45
2019-04-04T09:43:07.932Z,9.62
2019-04-04T09:44:07.819Z,9.45
2019-04-04T09:46:00.510Z,9.59
2019-04-04T09:47:05.483Z,9.72
2019-04-04T09:48:53.047Z,9.80
2019-04-04T09:49:52.935Z,9.72
2019-04-04T09:51:45.626Z,9.78
2019-04-04T09:52:45.505Z,9.78
2019-04-04T09:54:38.177Z,9.80
2019-04-04T09:55:38.071Z,9.63
2019-04-04T09:57:30.749Z,9.67
2019-04-04T09:58:30.622Z,9.60
2019-04-04T10:00:23.291Z,9.70
2019-04-04T10:01:23.177Z,9.55
2019-04-04T10:03:15.877Z,9.47
2019-04-04T10:04:15.743Z,9.47
2019-04-04T10:06:08.419Z,9.57
2019-04-04T10:07:08.299Z,9.66
2019-04-04T10:09:00.992Z,9.72
2019-04-04T10:10:00.861Z,9.59
2019-04-04T10:11:53.534Z,9.63
2019-04-04T10:12:53.427Z,9.78
2019-04-04T10:14:46.112Z,9.96
2019-04-04T10:15:45.987Z,9.89
2019-04-04T10:17:38.663Z,9.82
2019-04-04T10:18:38.535Z,9.74
2019-04-04T10:20:31.226Z,9.81
2019-04-04T10:21:31.096Z,9.67
2019-04-04T10:23:23.788Z,9.60
2019-04-04T10:24:23.662Z,9.53
2019-04-04T10:26:16.354Z,9.34
2019-04-04T10:27:16.224Z,9.32
2019-04-04T10:29:08.906Z,9.01
2019-04-04T10:30:08.794Z,9.00
2019-04-04T10:32:01.485Z,9.03
2019-04-04T10:33:01.353Z,9.01
2019-04-04T10:34:54.017Z,8.85
2019-04-04T10:35:53.913Z,8.95
2019-04-04T10:37:46.589Z,9.05
2019-04-04T10:38:46.468Z,9.03
2019-04-04T10:40:39.143Z,9.04
2019-04-04T10:41:39.026Z,9.09
2019-04-04T10:43:31.711Z,9.09
2019-04-04T10:44:31.577Z,9.03
2019-04-04T10:46:24.246Z,9.09
2019-04-04T10:47:24.128Z,9.09
2019-04-04T10:49:16.827Z,9.16
2019-04-04T10:50:16.703Z,9.08
2019-04-04T10:52:09.371Z,9.03
2019-04-04T10:53:09.259Z,9.12
2019-04-04T10:55:01.958Z,9.11
2019-04-04T10:56:01.823Z,9.12
2019-04-04T10:57:54.496Z,9.23
2019-04-04T10:58:54.378Z,9.17
2019-04-04T11:00:47.074Z,9.14
2019-04-04T11:01:46.937Z,9.17
2019-04-04T11:03:39.609Z,9.35
2019-04-04T11:04:39.490Z,9.38
2019-04-04T11:06:32.187Z,9.56
2019-04-04T11:07:32.053Z,9.72
2019-04-04T11:09:24.729Z,9.99
2019-04-04T11:10:24.606Z,10.14
2019-04-04T11:12:17.295Z,10.23
2019-04-04T11:13:17.171Z,10.17
2019-04-04T11:15:09.842Z,10.36
2019-04-04T11:16:09.754Z,10.29
2019-04-04T11:18:02.415Z,10.47
2019-04-04T11:19:02.292Z,10.46
2019-04-04T11:20:54.975Z,10.67
2019-04-04T11:21:54.863Z,10.61
2019-04-04T11:23:47.602Z,10.79
2019-04-04T11:24:47.425Z,10.70
2019-04-04T11:26:40.095Z,10.79
2019-04-04T11:27:39.981Z,10.91
2019-04-04T11:29:32.714Z,10.70
2019-04-04T11:30:32.544Z,10.80
2019-04-04T11:32:25.248Z,10.66
2019-04-04T11:33:25.111Z,10.65
2019-04-04T11:35:17.810Z,10.44
2019-04-04T11:36:17.674Z,10.44
2019-04-04T11:38:10.369Z,10.31
2019-04-04T11:39:10.243Z,10.33
2019-04-04T11:41:02.945Z,10.10
2019-04-04T11:42:02.823Z,10.17
2019-04-04T11:43:55.491Z,10.15
2019-04-04T11:44:55.381Z,10.25
2019-04-04T11:46:48.083Z,10.13
2019-04-04T11:47:47.945Z,10.10
2019-04-04T11:49:40.621Z,10.02
2019-04-04T11:50:40.507Z,9.96
2019-04-04T11:52:33.215Z,9.80
2019-04-04T11:53:33.069Z,9.84
2019-04-04T11:55:25.739Z,9.84
2019-04-04T11:56:25.629Z,9.82
2019-04-04T11:58:18.316Z,9.96
2019-04-04T11:59:18.189Z,9.95
2019-04-04T12:01:10.869Z,10.03
2019-04-04T12:02:10.750Z,10.10
2019-04-04T12:04:03.430Z,10.15
2019-04-04T12:05:03.309Z,10.13
2019-04-04T12:06:55.977Z,9.95
2019-04-04T12:07:55.869Z,9.88
2019-04-04T12:09:48.584Z,9.78
2019-04-04T12:10:48.426Z,9.96
2019-04-04T12:12:41.101Z,9.75
2019-04-04T12:13:40.997Z,9.72
2019-04-04T12:15:33.689Z,9.67
2019-04-04T12:16:33.561Z,9.64
2019-04-04T12:18:26.231Z,9.56
2019-04-04T12:19:26.119Z,9.52
2019-04-04T12:21:18.826Z,9.56
2019-04-04T12:22:18.697Z,9.56
2019-04-04T12:24:11.368Z,9.57
2019-04-04T12:25:11.256Z,9.50
2019-04-04T12:27:03.958Z,9.38
2019-04-04T12:28:03.827Z,9.50
2019-04-04T12:29:56.495Z,9.72
2019-04-04T12:30:56.391Z,9.82
2019-04-04T12:32:49.107Z,9.93
2019-04-04T12:33:48.983Z,9.92
2019-04-04T12:35:41.616Z,10.05
2019-04-04T12:36:41.508Z,10.10
2019-04-04T12:38:34.201Z,9.71
2019-04-04T12:39:34.070Z,9.75
2019-04-04T12:41:28.214Z,9.77
2019-04-04T12:42:26.632Z,9.71
2019-04-04T12:44:19.404Z,9.81
2019-04-04T12:45:19.215Z,9.88
2019-04-04T12:47:11.887Z,10.00
2019-04-04T12:48:11.768Z,10.05
2019-04-04T12:50:04.464Z,9.88
2019-04-04T12:51:04.324Z,9.88
2019-04-04T12:52:56.991Z,9.89
2019-04-04T12:53:56.885Z,10.00
2019-04-04T12:55:49.570Z,10.17
2019-04-04T12:56:49.449Z,10.32
2019-04-04T12:58:42.106Z,10.28
2019-04-04T12:59:42.008Z,10.31
2019-04-04T13:01:34.693Z,10.32
2019-04-04T13:02:34.569Z,10.11
2019-04-04T13:04:31.897Z,10.00
2019-04-04T13:05:27.139Z,10.10
2019-04-04T13:07:19.878Z,10.36
2019-04-04T13:08:19.695Z,10.32
2019-04-04T13:10:12.449Z,10.02
2019-04-04T13:11:12.266Z,9.81
2019-04-04T13:13:04.945Z,9.93
2019-04-04T13:14:04.818Z,9.74
2019-04-04T13:15:57.494Z,9.78
2019-04-04T13:16:57.386Z,9.81
2019-04-04T13:18:50.084Z,9.88
2019-04-04T13:19:49.953Z,9.88
2019-04-04T13:21:42.623Z,9.82
2019-04-04T13:22:42.504Z,9.80
2019-04-04T13:24:35.209Z,9.66
2019-04-04T13:25:35.077Z,9.56
2019-04-04T13:27:27.760Z,9.63
2019-04-04T13:28:27.740Z,9.59
2019-04-04T13:30:20.349Z,9.78
2019-04-04T13:31:20.212Z,9.78
2019-04-04T13:33:12.968Z,9.71
2019-04-04T13:34:12.859Z,9.74
2019-04-04T13:36:05.593Z,9.57
2019-04-04T13:37:05.454Z,9.52
2019-04-04T13:38:58.096Z,9.11
2019-04-04T13:39:57.989Z,9.19
2019-04-04T13:41:50.671Z,9.03
2019-04-04T13:42:52.738Z,8.95
2019-04-04T13:44:44.938Z,8.98
2019-04-04T13:45:43.102Z,8.98
2019-04-04T13:47:38.278Z,9.04
2019-04-04T13:48:35.657Z,9.03
2019-04-04T13:50:28.320Z,9.19
2019-04-04T13:51:28.211Z,9.24
2019-04-04T13:53:21.133Z,9.32
2019-04-04T13:54:20.782Z,9.19
2019-04-04T13:56:13.465Z,9.08
2019-04-04T13:57:13.349Z,9.12
2019-04-04T13:59:06.126Z,9.12
2019-04-04T14:00:05.902Z,9.08
2019-04-04T14:01:58.581Z,9.04
2019-04-04T14:02:58.462Z,9.05
2019-04-04T14:04:54.858Z,9.05
2019-04-04T14:05:51.019Z,9.20
2019-04-04T14:07:44.184Z,9.26
2019-04-04T14:08:45.690Z,9.09
2019-04-04T14:10:36.283Z,9.30
2019-04-04T14:11:36.150Z,9.24
2019-04-04T14:13:28.817Z,9.21
2019-04-04T14:14:28.699Z,9.30
2019-04-04T14:16:21.396Z,9.14
2019-04-04T14:17:21.303Z,9.24
2019-04-04T14:19:13.929Z,9.32
2019-04-04T14:20:13.830Z,9.38
2019-04-04T14:22:06.518Z,9.16
2019-04-04T14:23:06.375Z,9.01
2019-04-04T14:24:59.055Z,8.98
2019-04-04T14:25:59.939Z,8.98
2019-04-04T14:27:51.629Z,9.04
2019-04-04T14:28:51.508Z,9.01
2019-04-04T14:30:44.169Z,9.01
2019-04-04T14:31:44.056Z,9.00
2019-04-04T14:33:36.743Z,9.03
2019-04-04T14:34:36.617Z,9.05
2019-04-04T14:36:29.286Z,9.20
2019-04-04T14:37:29.219Z,9.20
2019-04-04T14:39:21.867Z,9.09
2019-04-04T14:40:21.723Z,9.12
2019-04-04T14:42:14.391Z,9.12
2019-04-04T14:43:14.286Z,9.08
2019-04-04T14:45:06.985Z,9.03
2019-04-04T14:46:06.835Z,9.03
2019-04-04T14:47:59.518Z,8.94
2019-04-04T14:48:59.409Z,8.90
2019-04-04T14:50:52.095Z,9.03
2019-04-04T14:51:51.969Z,9.04
2019-04-04T14:53:44.637Z,8.82
2019-04-04T14:54:44.520Z,8.89
2019-04-04T14:56:37.214Z,8.89
2019-04-04T14:57:37.088Z,8.85
2019-04-04T14:59:29.739Z,8.76
2019-04-04T15:00:29.630Z,8.85
2019-04-04T15:02:22.310Z,8.92
2019-04-04T15:03:22.181Z,8.80
2019-04-04T15:05:14.876Z,8.74
2019-04-04T15:06:14.772Z,8.72
2019-04-04T15:08:07.451Z,8.49
2019-04-04T15:09:07.322Z,8.46
2019-04-04T15:11:00.155Z,8.53
2019-04-04T15:11:59.893Z,8.49
2019-04-04T15:13:52.581Z,8.61
2019-04-04T15:14:52.447Z,8.49
2019-04-04T15:16:45.121Z,8.60
2019-04-04T15:17:45.003Z,8.62
2019-04-04T15:19:37.684Z,8.74
2019-04-04T15:20:37.566Z,8.82
2019-04-04T15:22:31.892Z,8.92
2019-04-04T15:23:30.104Z,8.87
2019-04-04T15:25:22.831Z,8.92
2019-04-04T15:26:22.693Z,8.94
2019-04-04T15:28:15.369Z,8.92
2019-04-04T15:29:15.255Z,8.94
2019-04-04T15:31:07.953Z,8.87
2019-04-04T15:32:07.820Z,8.89
2019-04-04T15:34:00.487Z,8.89
2019-04-04T15:35:00.372Z,8.94
2019-04-04T15:36:53.053Z,8.83
2019-04-04T15:37:52.922Z,8.65
2019-04-04T15:39:45.589Z,8.67
2019-04-04T15:40:45.479Z,8.68
2019-04-04T15:42:38.168Z,8.67
2019-04-04T15:43:38.030Z,8.64
2019-04-04T15:45:30.704Z,8.50
2019-04-04T15:46:30.586Z,8.54
2019-04-04T15:48:23.287Z,8.62
2019-04-04T15:49:23.151Z,8.54
2019-04-04T15:51:15.821Z,8.46
2019-04-04T15:52:15.709Z,8.40
2019-04-04T15:54:08.392Z,8.40
2019-04-04T15:55:08.283Z,8.40
2019-04-04T15:57:00.954Z,8.42
2019-04-04T15:58:00.826Z,8.35
2019-04-04T15:59:53.519Z,8.49
2019-04-04T16:00:53.393Z,8.44
2019-04-04T16:02:46.056Z,8.47
2019-04-04T16:03:45.934Z,8.46
2019-04-04T16:05:38.899Z,8.46
2019-04-04T16:06:38.489Z,8.47
2019-04-04T16:08:31.158Z,8.61
2019-04-04T16:09:31.045Z,8.49
2019-04-04T16:11:23.755Z,8.47
2019-04-04T16:12:23.624Z,8.61
2019-04-04T16:14:16.304Z,8.64
2019-04-04T16:15:16.189Z,8.58
2019-04-04T16:17:08.865Z,8.76
2019-04-04T16:18:08.737Z,8.72
2019-04-04T16:20:01.394Z,8.69
2019-04-04T16:21:01.285Z,8.79
2019-04-04T16:22:53.967Z,8.69
2019-04-04T16:23:53.833Z,8.57
2019-04-04T16:25:46.503Z,8.60
2019-04-04T16:26:46.394Z,8.71
2019-04-04T16:28:39.082Z,8.60
2019-04-04T16:29:38.942Z,8.68
2019-04-04T16:31:34.359Z,8.62
2019-04-04T16:32:31.536Z,8.61
2019-04-04T16:34:24.222Z,8.58
2019-04-04T16:35:24.100Z,8.68
2019-04-04T16:37:16.760Z,8.65
2019-04-04T16:38:16.637Z,8.58
2019-04-04T16:40:09.724Z,8.68
2019-04-04T16:41:09.193Z,8.67
2019-04-04T16:43:01.884Z,8.49
2019-04-04T16:44:01.748Z,8.39
2019-04-04T16:45:54.437Z,8.43
2019-04-04T16:46:54.293Z,8.46
2019-04-04T16:48:46.966Z,8.46
2019-04-04T16:49:46.854Z,8.47
2019-04-04T16:51:39.538Z,8.39
2019-04-04T16:52:39.410Z,8.43
2019-04-04T16:54:32.074Z,8.29
2019-04-04T16:55:31.967Z,8.34
2019-04-04T16:57:24.633Z,8.35
2019-04-04T16:58:24.521Z,8.36
2019-04-04T17:00:17.170Z,8.28
2019-04-04T17:01:17.061Z,8.24
2019-04-04T17:03:09.782Z,8.28
2019-04-04T17:04:09.635Z,8.25
2019-04-04T17:06:02.297Z,8.31
2019-04-04T17:07:02.181Z,8.34
2019-04-04T17:08:54.878Z,8.28
2019-04-04T17:09:54.740Z,8.36
2019-04-04T17:11:47.400Z,8.44
2019-04-04T17:12:47.287Z,8.49
2019-04-04T17:14:39.971Z,8.65
2019-04-04T17:15:39.854Z,8.64
2019-04-04T17:17:32.513Z,8.53
2019-04-04T17:18:32.404Z,8.53
2019-04-04T17:20:25.086Z,8.42
2019-04-04T17:21:24.952Z,8.40
2019-04-04T17:23:17.624Z,8.50
2019-04-04T17:24:17.509Z,8.46
2019-04-04T17:26:10.198Z,8.61
2019-04-04T17:27:10.063Z,8.57
2019-04-04T17:29:02.731Z,8.50
2019-04-04T17:30:02.626Z,8.46
2019-04-04T17:31:55.299Z,8.46
2019-04-04T17:32:55.520Z,8.44
2019-04-04T17:34:47.836Z,8.49
2019-04-04T17:35:47.730Z,8.49
2019-04-04T17:37:40.417Z,8.49
2019-04-04T17:38:40.278Z,8.49
2019-04-04T17:40:33.488Z,8.49
2019-04-04T17:41:33.241Z,8.52
2019-04-04T17:43:25.525Z,8.46
2019-04-04T17:44:25.396Z,8.46
2019-04-04T17:46:18.134Z,8.47
2019-04-04T17:47:18.086Z,8.43
2019-04-04T17:49:10.644Z,8.44
2019-04-04T17:50:10.762Z,8.49
2019-04-04T17:52:03.176Z,8.34
2019-04-04T17:53:03.066Z,8.34
2019-04-04T17:54:55.765Z,8.40
2019-04-04T17:55:56.140Z,8.49
2019-04-04T17:57:48.754Z,8.43
2019-04-04T17:58:48.187Z,8.40
2019-04-04T18:00:40.870Z,8.35
2019-04-04T18:01:40.730Z,8.35
2019-04-04T18:03:33.404Z,8.32
2019-04-04T18:04:34.729Z,8.29
2019-04-04T18:06:25.971Z,8.40
2019-04-04T18:07:25.840Z,8.24
2019-04-04T18:09:30.865Z,8.28
2019-04-04T18:10:18.391Z,8.26
2019-04-04T18:12:11.077Z,8.31
2019-04-04T18:13:10.946Z,8.34
2019-04-04T18:15:03.610Z,8.22
2019-04-04T18:16:03.503Z,8.26
2019-04-04T18:17:56.772Z,8.21
2019-04-04T18:18:56.049Z,8.22
2019-04-04T18:20:48.708Z,8.25
2019-04-04T18:21:48.594Z,8.19
2019-04-04T18:23:41.291Z,8.10
2019-04-04T18:24:41.162Z,8.09
2019-04-04T18:26:33.824Z,8.14
2019-04-04T18:27:33.715Z,8.13
2019-04-04T18:29:26.399Z,8.13
2019-04-04T18:30:26.269Z,8.03
2019-04-04T18:32:18.931Z,8.09
2019-04-04T18:33:19.879Z,7.95
2019-04-04T18:35:11.670Z,8.10
2019-04-04T18:36:11.633Z,8.03
2019-04-04T18:38:04.540Z,8.07
2019-04-04T18:39:03.927Z,8.04
2019-04-04T18:40:56.608Z,8.10
2019-04-04T18:41:56.479Z,7.99
2019-04-04T18:43:49.152Z,8.09
2019-04-04T18:44:49.035Z,8.10
2019-04-04T18:46:41.712Z,8.07
2019-04-04T18:47:41.587Z,8.11
2019-04-04T18:49:34.263Z,8.09
2019-04-04T18:50:34.141Z,8.04
2019-04-04T18:52:26.822Z,7.96
2019-04-04T18:53:26.693Z,8.07
2019-04-04T18:55:20.374Z,7.98
2019-04-04T18:56:19.252Z,7.96
2019-04-04T18:58:11.926Z,7.98
2019-04-04T18:59:11.798Z,7.93
2019-04-04T19:01:04.461Z,7.95
2019-04-04T19:02:04.349Z,8.03
2019-04-04T19:03:57.030Z,7.91
2019-04-04T19:04:56.898Z,7.80
2019-04-04T19:06:49.569Z,7.89
2019-04-04T19:07:49.468Z,7.83
2019-04-04T19:09:42.188Z,7.96
2019-04-04T19:10:42.018Z,8.03
2019-04-04T19:12:34.677Z,7.99
2019-04-04T19:13:44.132Z,7.89
2019-04-04T19:15:27.273Z,7.93
2019-04-04T19:16:27.181Z,7.96
2019-04-04T19:18:19.805Z,8.03
2019-04-04T19:19:19.695Z,8.06
2019-04-04T19:21:12.380Z,8.04
2019-04-04T19:22:12.249Z,8.07
2019-04-04T19:24:04.917Z,8.10
2019-04-04T19:25:04.795Z,7.99
2019-04-04T19:26:57.486Z,8.07
2019-04-04T19:27:57.342Z,8.06
2019-04-04T19:29:50.037Z,7.96
2019-04-04T19:30:49.903Z,8.01
2019-04-04T19:32:42.598Z,7.98
2019-04-04T19:33:42.461Z,7.98
2019-04-04T19:35:35.129Z,7.95
2019-04-04T19:36:35.014Z,8.06
2019-04-04T19:38:27.846Z,7.95
2019-04-04T19:39:27.568Z,8.03
2019-04-04T19:41:20.450Z,8.09
2019-04-04T19:42:20.235Z,8.04
2019-04-04T19:44:12.798Z,8.10
2019-04-04T19:45:12.680Z,8.10
2019-04-04T19:47:05.489Z,8.10
2019-04-04T19:48:05.226Z,8.06
2019-04-04T19:49:57.904Z,8.01
2019-04-04T19:50:57.783Z,8.10
2019-04-04T19:52:50.456Z,8.06
2019-04-04T19:53:50.343Z,8.14
2019-04-04T19:55:43.025Z,7.93
2019-04-04T19:56:42.899Z,7.93
2019-04-04T19:58:35.563Z,7.96
2019-04-04T19:59:35.454Z,7.96
2019-04-04T20:01:28.200Z,8.06
2019-04-04T20:02:28.012Z,8.06
2019-04-04T20:04:20.690Z,7.99
2019-04-04T20:05:20.611Z,8.03
2019-04-04T20:07:13.269Z,8.09
2019-04-04T20:08:13.138Z,8.09
2019-04-04T20:10:05.804Z,8.03
2019-04-04T20:11:05.688Z,8.10
2019-04-04T20:12:58.375Z,8.13
2019-04-04T20:13:58.267Z,8.09
2019-04-04T20:15:50.912Z,8.10
2019-04-04T20:16:50.799Z,8.26
2019-04-04T20:18:43.481Z,8.09
2019-04-04T20:19:43.367Z,8.09
2019-04-04T20:21:36.028Z,8.10
2019-04-04T20:22:35.945Z,8.13
2019-04-04T20:24:28.658Z,8.24
2019-04-04T20:25:28.609Z,8.21
2019-04-04T20:27:21.199Z,8.21
2019-04-04T20:28:21.059Z,8.21
2019-04-04T20:30:14.425Z,8.21
2019-04-04T20:31:13.614Z,8.25
2019-04-04T20:33:06.282Z,8.28
2019-04-04T20:34:06.449Z,8.26
2019-04-04T20:35:58.846Z,8.28
2019-04-04T20:36:58.780Z,8.34
2019-04-04T20:38:51.402Z,8.21
2019-04-04T20:39:51.294Z,8.14
2019-04-04T20:41:43.993Z,8.19
2019-04-04T20:42:43.864Z,8.24
2019-04-04T20:44:36.533Z,8.19
2019-04-04T20:45:36.419Z,8.09
2019-04-04T20:47:29.095Z,7.95
2019-04-04T20:48:28.965Z,8.03
2019-04-04T20:50:21.630Z,8.11
2019-04-04T20:51:21.518Z,8.01
2019-04-04T20:53:14.198Z,8.13
2019-04-04T20:54:14.123Z,8.03
2019-04-04T20:56:06.749Z,8.06
2019-04-04T20:57:06.627Z,8.03
2019-04-04T20:58:59.337Z,8.04
2019-04-04T20:59:59.174Z,8.10
2019-04-04T21:01:51.860Z,7.95
2019-04-04T21:02:51.728Z,7.93
2019-04-04T21:04:44.432Z,7.88
2019-04-04T21:05:44.300Z,7.89
2019-04-04T21:07:36.977Z,7.92
2019-04-04T21:08:36.840Z,7.88
2019-04-04T21:10:29.526Z,7.85
2019-04-04T21:11:29.386Z,7.93
2019-04-04T21:13:22.065Z,7.78
2019-04-04T21:14:21.964Z,7.91
2019-04-04T21:16:14.640Z,7.89
2019-04-04T21:17:14.516Z,7.93
2019-04-04T21:19:07.178Z,7.99
2019-04-04T21:20:07.061Z,7.89
2019-04-04T21:21:59.749Z,7.93
2019-04-04T21:22:59.628Z,7.85
2019-04-04T21:24:52.310Z,8.03
2019-04-04T21:25:52.186Z,7.93
2019-04-04T21:27:44.882Z,7.96
2019-04-04T21:28:44.743Z,7.92
2019-04-04T21:30:37.419Z,8.01
2019-04-04T21:31:37.299Z,8.01
2019-04-04T21:33:30.011Z,7.92
2019-04-04T21:34:29.860Z,7.89
2019-04-04T21:36:22.527Z,7.95
2019-04-04T21:37:22.416Z,7.96
2019-04-04T21:39:15.119Z,7.93
2019-04-04T21:40:14.968Z,7.99
2019-04-04T21:42:07.627Z,7.99
2019-04-04T21:43:07.514Z,7.89
2019-04-04T21:45:00.200Z,7.99
2019-04-04T21:46:00.066Z,7.86
2019-04-04T21:47:52.815Z,7.85
2019-04-04T21:48:52.621Z,7.86
2019-04-04T21:50:45.299Z,7.91
2019-04-04T21:51:45.187Z,7.83
2019-04-04T21:53:37.874Z,7.89
2019-04-04T21:54:37.768Z,7.83
2019-04-04T21:56:30.452Z,7.83
2019-04-04T21:57:30.334Z,7.93
2019-04-04T21:59:22.971Z,7.88
